Time;durP1;ratioP1;P1;durP2;ratioP2;P2;SDS_P1;SDS_P2;PMS_P1;PMS_P2;Temp;Humidity;BMP_temperature;BMP_pressure;BME280_temperature;BME280_humidity;BME280_pressure;Samples;Min_cycle;Max_cycle;Signal;HPM_P1;HPM_P2
2021/12/15 00:00:09;;;;;;;;;55.25;44.25;;;;;4.30;87.52;101685.13;5041095;28;11536;-74
2021/12/15 00:03:06;;;;;;;;;40.50;32.50;;;;;4.15;87.27;101677.66;5052896;28;11545;-74
2021/12/15 00:06:10;;;;;;;;;34.25;33.00;;;;;4.09;86.89;101686.09;5053748;28;11566;-74
2021/12/15 00:09:11;;;;;;;;;42.25;40.25;;;;;4.04;87.77;101691.50;5054190;28;12309;-74
2021/12/15 00:12:08;;;;;;;;;37.00;37.00;;;;;4.16;87.42;101703.13;5039658;28;11605;-75
2021/12/15 00:15:06;;;;;;;;;40.25;39.25;;;;;4.08;87.06;101703.59;5052870;28;11774;-74
2021/12/15 00:18:01;;;;;;;;;50.00;42.25;;;;;4.06;88.03;101694.81;5053007;28;11620;-74
2021/12/15 00:20:57;;;;;;;;;52.25;41.25;;;;;4.00;88.44;101696.72;5052471;28;11562;-74
2021/12/15 00:23:53;;;;;;;;;46.75;42.50;;;;;4.10;87.82;101691.28;5053808;28;11670;-74
2021/12/15 00:26:49;;;;;;;;;39.25;38.00;;;;;4.12;87.57;101697.31;5052943;28;12160;-74
2021/12/15 00:29:45;;;;;;;;;41.75;40.00;;;;;4.24;87.62;101701.78;5039216;28;11602;-75
2021/12/15 00:32:40;;;;;;;;;45.00;41.00;;;;;4.07;87.59;101680.88;5032781;28;11680;-74
2021/12/15 00:35:37;;;;;;;;;42.50;35.50;;;;;4.30;87.70;101696.09;5033546;28;11686;-75
2021/12/15 00:38:33;;;;;;;;;39.00;38.50;;;;;4.17;88.06;101693.81;5046936;28;11577;-75
2021/12/15 00:41:29;;;;;;;;;53.75;48.00;;;;;4.23;87.83;101689.19;5052257;28;11515;-74
2021/12/15 00:44:25;;;;;;;;;40.50;39.25;;;;;4.40;86.35;101690.66;5054076;28;11524;-75
2021/12/15 00:47:21;;;;;;;;;47.25;40.25;;;;;4.39;87.14;101688.19;5052635;28;11484;-75
2021/12/15 00:50:20;;;;;;;;;33.25;29.25;;;;;4.26;86.62;101685.91;5052287;28;11505;-75
2021/12/15 00:53:16;;;;;;;;;41.00;40.75;;;;;4.41;86.70;101672.31;5052012;28;11570;-75
2021/12/15 00:56:12;;;;;;;;;41.50;34.50;;;;;4.32;86.35;101673.91;5064016;28;11554;-75
2021/12/15 00:59:10;;;;;;;;;43.25;39.75;;;;;4.16;86.93;101678.47;5052001;28;12369;-74
2021/12/15 01:02:07;;;;;;;;;37.25;35.50;;;;;4.32;86.31;101665.69;5063644;28;11538;-75
2021/12/15 01:05:05;;;;;;;;;36.00;35.25;;;;;4.28;86.31;101670.84;5051832;28;12335;-75
2021/12/15 01:08:05;;;;;;;;;34.25;32.00;;;;;4.44;85.77;101666.28;5039007;28;11540;-74
2021/12/15 01:11:30;;;;;;;;;38.00;30.00;;;;;4.30;85.67;101654.19;5052916;28;12373;-74
2021/12/15 01:20:24;;;;;;;;;42.75;40.25;;;;;4.47;85.32;101647.44;5052581;28;11651;-74
2021/12/15 01:23:29;;;;;;;;;35.00;34.25;;;;;4.49;85.00;101646.31;5038572;28;11579;-74
2021/12/15 01:26:25;;;;;;;;;35.00;35.00;;;;;4.66;84.77;101644.19;5051681;28;11534;-74
2021/12/15 01:29:20;;;;;;;;;38.25;34.50;;;;;4.54;84.57;101643.63;5037982;28;11627;-74
2021/12/15 01:32:17;;;;;;;;;37.00;35.25;;;;;4.36;84.49;101645.72;5033183;28;11559;-75
2021/12/15 01:35:14;;;;;;;;;32.25;31.50;;;;;4.20;85.53;101652.19;5033407;28;11543;-75
2021/12/15 01:37:46;;;;;;;;;43.25;36.25;;;;;4.45;85.21;101644.13;5032954;28;12332;-75
2021/12/15 01:40:44;;;;;;;;;35.50;33.00;;;;;4.23;85.23;101645.38;5043337;28;11493;-75
2021/12/15 01:49:46;;;;;;;;;40.25;38.50;;;;;4.46;85.32;101654.00;5052811;28;11550;-75
2021/12/15 01:52:42;;;;;;;;;35.75;33.25;;;;;4.48;85.59;101659.22;5038208;28;11614;-75
2021/12/15 01:55:37;;;;;;;;;37.50;36.25;;;;;4.56;85.08;101655.13;5051776;28;11698;-75
2021/12/15 01:58:34;;;;;;;;;31.50;29.00;;;;;4.37;85.22;101657.50;5037724;28;11708;-74
2021/12/15 02:01:30;;;;;;;;;38.75;38.75;;;;;4.31;86.02;101653.91;5032458;28;11571;-74
2021/12/15 02:04:13;;;;;;;;;45.00;42.00;;;;;4.44;85.36;101658.91;5032886;28;11562;-74
2021/12/15 02:07:14;;;;;;;;;42.00;40.25;;;;;4.27;86.14;101655.53;5031688;28;11557;-74
2021/12/15 02:10:11;;;;;;;;;46.50;39.50;;;;;4.29;86.32;101650.59;5046593;28;11541;-74
2021/12/15 02:13:10;;;;;;;;;19.25;18.25;;;;;4.09;86.80;101650.50;5052962;28;11530;-74
2021/12/15 02:15:42;;;;;;;;;38.75;37.50;;;;;4.14;86.76;101656.84;5052682;28;11562;-74
2021/12/15 02:18:42;;;;;;;;;42.25;40.50;;;;;4.29;86.49;101656.06;5051283;28;12285;-74
2021/12/15 02:21:38;;;;;;;;;44.25;40.75;;;;;4.27;86.13;101657.44;5031674;28;11675;-74
2021/12/15 02:24:36;;;;;;;;;42.25;39.50;;;;;4.44;85.83;101675.34;5031613;28;11717;-74
2021/12/15 02:27:34;;;;;;;;;51.25;46.00;;;;;4.26;86.24;101672.22;5033032;28;11566;-74
2021/12/15 02:33:56;;;;;;;;;48.25;41.00;;;;;4.60;85.42;101681.75;5051600;28;11560;-74
2021/12/15 02:40:09;;;;;;;;;39.75;39.50;;;;;4.53;85.02;101672.94;5054380;28;11709;-74
2021/12/15 02:43:06;;;;;;;;;55.50;44.00;;;;;4.65;84.52;101678.19;5054700;28;12319;-74
2021/12/15 02:46:03;;;;;;;;;40.00;40.00;;;;;4.83;83.50;101677.72;5054776;28;11556;-74
2021/12/15 02:49:00;;;;;;;;;36.25;36.25;;;;;4.73;83.34;101680.41;5054470;28;11565;-74
2021/12/15 02:51:59;;;;;;;;;37.25;35.25;;;;;4.65;83.54;101670.78;5022058;28;11554;-74
2021/12/15 02:54:55;;;;;;;;;48.50;41.25;;;;;4.51;84.62;101675.09;5046345;28;11559;-74
2021/12/15 02:57:51;;;;;;;;;46.25;42.00;;;;;4.44;84.29;101667.13;5036119;28;11617;-74
2021/12/15 03:01:01;;;;;;;;;43.25;39.00;;;;;4.50;84.45;101658.94;5045366;28;11548;-75
2021/12/15 03:07:08;;;;;;;;;39.75;37.50;;;;;4.50;84.33;101659.75;5035657;28;11542;-75
2021/12/15 03:15:52;;;;;;;;;36.50;33.75;;;;;4.56;84.10;101666.09;5054301;28;11533;-74
2021/12/15 03:18:49;;;;;;;;;37.50;36.50;;;;;4.56;84.50;101658.69;5054175;28;11628;-74
2021/12/15 03:21:45;;;;;;;;;36.00;36.00;;;;;4.49;84.45;101658.09;5054160;28;11578;-74
2021/12/15 03:24:27;;;;;;;;;38.50;36.75;;;;;4.42;84.29;101655.59;5039368;28;11625;-74
2021/12/15 03:27:05;;;;;;;;;35.00;34.75;;;;;4.44;83.98;101652.59;5054480;28;11521;-74
2021/12/15 03:36:11;;;;;;;;;40.50;39.50;;;;;4.45;83.79;101646.06;5053706;28;11562;-74
2021/12/15 03:39:09;;;;;;;;;33.75;32.25;;;;;4.43;83.89;101648.22;5054785;28;11588;-75
2021/12/15 03:42:04;;;;;;;;;38.25;37.25;;;;;4.26;84.71;101645.66;5034891;28;11662;-74
2021/12/15 03:45:03;;;;;;;;;27.75;27.25;;;;;4.14;84.46;101651.34;5035120;28;11737;-75
2021/12/15 03:48:05;;;;;;;;;31.25;31.25;;;;;4.24;85.01;101636.91;5027572;28;11663;-75
2021/12/15 03:51:01;;;;;;;;;37.50;35.50;;;;;3.90;86.03;101637.22;5053063;28;12351;-75
2021/12/15 03:53:57;;;;;;;;;31.50;30.50;;;;;4.01;86.00;101637.31;5053653;28;11640;-75
2021/12/15 03:56:54;;;;;;;;;43.00;35.00;;;;;3.96;86.84;101638.09;5053513;28;11688;-75
2021/12/15 03:59:50;;;;;;;;;32.25;30.75;;;;;4.05;86.06;101641.97;5052801;28;11616;-74
2021/12/15 04:02:48;;;;;;;;;35.50;35.50;;;;;3.93;86.92;101646.00;5033725;28;11522;-75
2021/12/15 04:05:43;;;;;;;;;35.75;32.25;;;;;3.95;87.03;101654.78;5044874;28;11561;-74
2021/12/15 04:08:42;;;;;;;;;46.75;39.00;;;;;4.07;86.75;101650.78;5035167;28;11548;-75
2021/12/15 04:11:13;;;;;;;;;28.50;28.25;;;;;3.82;86.84;101650.56;5049345;28;12323;-74
2021/12/15 04:14:20;;;;;;;;;30.00;30.00;;;;;3.83;87.24;101644.84;5053142;28;12439;-74
2021/12/15 04:17:33;;;;;;;;;34.00;32.50;;;;;3.85;87.24;101653.63;5053140;28;11532;-74
2021/12/15 04:20:12;;;;;;;;;38.75;30.50;;;;;4.07;86.27;101647.22;5045233;28;11582;-74
2021/12/15 04:23:10;;;;;;;;;38.00;36.75;;;;;4.18;85.42;101655.19;5052998;28;12217;-75
2021/12/15 04:25:40;;;;;;;;;30.75;29.00;;;;;4.03;85.78;101654.28;5053792;28;11498;-74
2021/12/15 04:28:21;;;;;;;;;39.75;28.75;;;;;3.75;87.17;101650.78;5054076;28;11594;-73
2021/12/15 04:31:22;;;;;;;;;37.00;32.75;;;;;4.01;86.52;101653.72;5051584;28;11617;-74
2021/12/15 04:34:18;;;;;;;;;50.75;45.25;;;;;4.05;86.11;101663.03;5052333;28;11602;-75
2021/12/15 04:37:14;;;;;;;;;47.25;43.50;;;;;4.14;85.79;101669.69;5038995;28;11593;-73
2021/12/15 04:40:13;;;;;;;;;56.75;46.00;;;;;3.95;86.27;101666.53;5020984;28;11678;-74
2021/12/15 04:43:10;;;;;;;;;33.25;33.25;;;;;3.93;86.15;101663.25;5046441;28;11529;-73
2021/12/15 04:46:08;;;;;;;;;44.50;40.00;;;;;3.83;86.69;101665.91;5064065;28;11624;-75
2021/12/15 04:49:07;;;;;;;;;38.50;36.50;;;;;3.88;86.52;101674.97;5056912;28;11678;-74
2021/12/15 04:51:47;;;;;;;;;34.25;34.25;;;;;4.10;85.86;101680.34;5052581;28;11527;-74
2021/12/15 04:54:18;;;;;;;;;40.75;39.00;;;;;4.01;85.48;101681.09;5053114;28;12362;-74
2021/12/15 04:57:17;;;;;;;;;44.75;40.00;;;;;4.03;85.35;101690.69;5042679;28;12469;-73
2021/12/15 05:00:17;;;;;;;;;37.50;35.25;;;;;3.85;85.82;101694.69;5037524;28;11543;-74
2021/12/15 05:03:09;;;;;;;;;34.75;31.25;;;;;3.85;85.66;101682.91;5065188;28;11619;-73
2021/12/15 05:05:51;;;;;;;;;45.50;41.75;;;;;3.99;85.79;101689.59;5052773;28;11566;-76
2021/12/15 05:08:47;;;;;;;;;39.50;35.75;;;;;4.04;85.21;101692.34;5052098;28;12381;-74
2021/12/15 05:11:34;;;;;;;;;36.25;35.50;;;;;4.02;85.31;101682.75;5052219;28;11559;-73
2021/12/15 05:14:29;;;;;;;;;37.00;35.75;;;;;3.95;85.53;101674.75;5038599;28;11606;-74
2021/12/15 05:17:25;;;;;;;;;30.00;30.00;;;;;3.89;86.38;101675.81;5053064;28;11525;-75
2021/12/15 05:20:22;;;;;;;;;44.50;41.25;;;;;4.18;85.29;101676.28;5051683;28;11563;-74
2021/12/15 05:22:50;;;;;;;;;41.00;40.00;;;;;4.17;84.62;101677.38;5052773;28;12398;-73
2021/12/15 05:25:48;;;;;;;;;33.25;32.50;;;;;3.92;85.98;101677.22;5052028;28;11563;-74
2021/12/15 05:28:44;;;;;;;;;27.50;27.50;;;;;3.69;86.81;101681.94;5062951;28;11543;-72
2021/12/15 05:31:39;;;;;;;;;42.75;41.75;;;;;3.87;86.26;101683.47;5039412;28;11475;-73
2021/12/15 05:34:40;;;;;;;;;29.25;28.75;;;;;3.89;86.03;101686.75;5051766;28;11526;-73
2021/12/15 05:37:37;;;;;;;;;45.25;40.50;;;;;4.15;85.57;101687.78;5051793;28;11698;-73
2021/12/15 05:40:33;;;;;;;;;40.50;37.75;;;;;4.06;85.89;101695.63;5051343;28;11803;-74
2021/12/15 05:43:29;;;;;;;;;38.75;38.75;;;;;3.88;86.53;101696.88;5053255;28;11662;-73
2021/12/15 05:46:25;;;;;;;;;40.50;33.25;;;;;3.83;86.98;101696.00;5051570;28;11601;-73
2021/12/15 05:48:59;;;;;;;;;31.00;31.00;;;;;3.83;87.31;101696.84;5053198;28;11728;-72
2021/12/15 05:51:56;;;;;;;;;38.25;37.50;;;;;3.83;87.52;101693.25;5052101;28;11725;-73
2021/12/15 05:54:52;;;;;;;;;34.25;34.25;;;;;3.77;87.61;101697.06;5051913;28;11610;-73
2021/12/15 05:57:48;;;;;;;;;45.00;39.50;;;;;3.92;87.38;101690.91;5038005;28;11600;-73
2021/12/15 06:00:46;;;;;;;;;37.50;35.75;;;;;3.84;87.65;101693.03;5051627;28;11602;-74
2021/12/15 06:03:42;;;;;;;;;37.00;34.75;;;;;3.90;87.30;101686.47;5038071;28;11622;-74
2021/12/15 06:06:37;;;;;;;;;45.00;39.00;;;;;3.83;87.82;101696.00;5051648;28;12360;-74
2021/12/15 06:09:34;;;;;;;;;55.25;45.00;;;;;3.93;87.95;101695.28;5051981;28;12408;-74
2021/12/15 06:12:30;;;;;;;;;35.25;32.00;;;;;3.95;87.21;101698.56;5042058;28;11609;-75
2021/12/15 06:15:28;;;;;;;;;24.50;23.75;;;;;3.89;87.42;101689.47;5055680;28;11818;-73
2021/12/15 06:18:25;;;;;;;;;31.75;29.25;;;;;3.87;88.29;101694.41;5054803;28;11546;-73
2021/12/15 06:21:22;;;;;;;;;38.75;37.75;;;;;3.82;88.31;101694.34;5055138;28;11565;-74
2021/12/15 06:23:55;;;;;;;;;36.00;35.25;;;;;3.74;88.74;101697.56;5036382;28;11624;-73
2021/12/15 06:26:36;;;;;;;;;42.00;39.00;;;;;3.65;89.06;101699.97;5068112;28;11587;-73
2021/12/15 06:29:05;;;;;;;;;39.00;32.25;;;;;3.63;88.96;101702.97;5055911;28;11576;-73
2021/12/15 06:32:01;;;;;;;;;29.75;28.75;;;;;3.50;89.50;101691.63;5041076;28;11670;-73
2021/12/15 06:34:28;;;;;;;;;39.50;35.75;;;;;3.49;89.85;101690.78;5055282;28;11699;-73
2021/12/15 06:36:57;;;;;;;;;47.00;43.50;;;;;3.65;89.76;101690.94;5038607;28;11675;-74
2021/12/15 06:39:24;;;;;;;;;48.67;44.67;;;;;3.88;88.97;101685.94;5056157;28;11522;-73
2021/12/15 06:42:20;;;;;;;;;29.00;29.00;;;;;3.65;88.95;101691.75;5056030;28;11598;-73
2021/12/15 06:44:50;;;;;;;;;52.00;47.25;;;;;3.82;89.75;101697.91;5055107;28;11548;-72
2021/12/15 06:59:19;;;;;;;;;55.00;43.50;;;;;4.05;89.42;101688.50;5055722;28;11555;-73
2021/12/15 07:01:52;;;;;;;;;33.00;32.25;;;;;3.81;89.92;101681.75;5054908;28;11489;-72
2021/12/15 07:04:48;;;;;;;;;38.25;37.00;;;;;3.79;90.19;101695.72;5021259;28;11583;-72
2021/12/15 07:07:47;;;;;;;;;39.25;39.25;;;;;3.75;89.60;101707.44;5034487;28;11551;-71
2021/12/15 07:10:46;;;;;;;;;36.25;34.75;;;;;4.02;89.10;101702.72;5034545;28;11565;-71
2021/12/15 07:13:17;;;;;;;;;33.75;32.25;;;;;3.83;88.85;101698.72;5049374;28;11617;-72
2021/12/15 07:16:13;;;;;;;;;45.25;39.00;;;;;3.98;88.88;101707.06;5054606;28;11551;-72
2021/12/15 07:18:52;;;;;;;;;23.75;23.75;;;;;3.86;88.32;101711.91;5055209;28;12479;-72
2021/12/15 07:22:06;;;;;;;;;27.50;24.00;;;;;3.94;88.68;101700.47;5051164;28;11526;-71
2021/12/15 07:24:35;;;;;;;;;26.50;25.00;;;;;3.87;88.37;101705.34;5050435;28;12358;-71
2021/12/15 07:27:31;;;;;;;;;26.50;25.25;;;;;3.96;88.28;101701.03;5053475;28;11571;-71
2021/12/15 07:30:27;;;;;;;;;35.25;32.00;;;;;3.95;88.31;101713.06;5053756;28;11503;-71
2021/12/15 07:32:56;;;;;;;;;43.25;41.00;;;;;4.02;88.07;101708.22;5036387;28;11553;-71
2021/12/15 07:35:52;;;;;;;;;38.50;35.25;;;;;3.83;88.47;101713.28;5041902;28;11679;-71
2021/12/15 07:38:47;;;;;;;;;38.00;38.00;;;;;3.87;88.94;101713.56;5041254;28;11569;-70
2021/12/15 07:41:52;;;;;;;;;25.00;25.00;;;;;3.70;88.96;101723.81;5053734;28;11586;-70
2021/12/15 07:44:48;;;;;;;;;28.00;27.00;;;;;3.76;89.16;101725.53;5053465;28;11535;-70
2021/12/15 07:47:43;;;;;;;;;23.50;23.50;;;;;3.74;89.31;101728.50;5053938;28;11556;-69
2021/12/15 07:50:42;;;;;;;;;43.75;40.50;;;;;3.80;88.87;101730.19;5053406;28;12396;-70
2021/12/15 07:53:39;;;;;;;;;43.50;38.75;;;;;3.90;88.41;101723.97;5052644;28;11553;-71
2021/12/15 07:56:36;;;;;;;;;26.75;26.75;;;;;3.98;88.75;101723.50;5036122;28;11530;-69
2021/12/15 07:59:08;;;;;;;;;16.00;16.00;;;;;3.80;88.30;101719.25;5034455;28;11633;-70
2021/12/15 08:01:36;;;;;;;;;34.75;34.75;;;;;4.03;88.45;101718.06;5042472;28;11614;-71
2021/12/15 08:04:24;;;;;;;;;25.75;25.75;;;;;3.83;88.81;101716.00;5053802;28;11611;-70
2021/12/15 08:07:20;;;;;;;;;25.25;25.25;;;;;3.77;89.60;101713.47;5052854;28;11536;-70
2021/12/15 08:10:23;;;;;;;;;25.25;25.25;;;;;3.74;89.62;101719.47;5052800;28;11547;-71
2021/12/15 08:13:04;;;;;;;;;30.00;28.00;;;;;3.83;89.67;101707.81;5053180;28;11532;-69
2021/12/15 08:15:45;;;;;;;;;29.00;28.50;;;;;3.94;89.04;101703.22;5052838;28;11591;-69
2021/12/15 08:18:14;;;;;;;;;19.00;19.00;;;;;3.97;88.77;101704.59;5053945;28;11583;-71
2021/12/15 08:21:10;;;;;;;;;32.25;30.25;;;;;3.81;89.34;101709.94;5054352;28;11563;-71
2021/12/15 08:24:05;;;;;;;;;27.75;26.00;;;;;3.76;90.17;101711.84;5052956;28;11623;-70
2021/12/15 08:27:03;;;;;;;;;24.25;24.25;;;;;3.87;89.66;101708.09;5053770;28;11603;-72
2021/12/15 08:29:46;;;;;;;;;34.75;31.00;;;;;4.12;88.91;101711.00;5053620;28;11598;-70
2021/12/15 08:32:15;;;;;;;;;41.75;40.25;;;;;4.24;88.61;101708.09;5052849;28;11654;-69
2021/12/15 08:35:10;;;;;;;;;25.00;22.50;;;;;3.99;88.76;101700.53;5033227;28;11673;-71
2021/12/15 08:38:09;;;;;;;;;25.50;25.50;;;;;4.05;88.98;101704.94;5064680;28;11636;-69
2021/12/15 08:40:38;;;;;;;;;19.75;19.50;;;;;4.01;89.14;101698.34;5052791;28;11604;-70
2021/12/15 08:43:14;;;;;;;;;27.75;27.25;;;;;4.07;89.03;101691.00;5057693;28;12379;-70
2021/12/15 08:45:56;;;;;;;;;21.25;19.00;;;;;3.98;89.20;101695.28;5052728;28;11532;-70
2021/12/15 08:48:53;;;;;;;;;25.00;22.25;;;;;3.95;89.83;101690.34;5032461;28;11690;-70
2021/12/15 08:51:50;;;;;;;;;24.00;22.75;;;;;4.16;89.19;101682.03;5045208;28;12312;-70
2021/12/15 08:54:46;;;;;;;;;32.00;32.00;;;;;4.27;88.48;101673.88;5065332;28;12328;-69
2021/12/15 08:57:47;;;;;;;;;15.75;15.25;;;;;4.01;88.89;101670.97;5056273;28;11606;-70
2021/12/15 09:00:18;;;;;;;;;17.50;17.50;;;;;4.05;89.26;101669.34;5053561;28;11514;-70
2021/12/15 09:03:14;;;;;;;;;32.50;29.50;;;;;4.13;89.29;101671.59;5049474;28;11580;-69
2021/12/15 09:06:11;;;;;;;;;31.00;31.00;;;;;4.45;88.14;101671.53;5048527;28;11679;-69
2021/12/15 09:08:42;;;;;;;;;33.25;32.50;;;;;4.57;87.62;101678.69;5041258;28;11582;-70
2021/12/15 09:11:38;;;;;;;;;25.25;22.25;;;;;4.52;87.60;101679.47;5042355;28;11547;-70
2021/12/15 09:14:10;;;;;;;;;21.75;21.75;;;;;4.44;87.17;101677.25;5052774;28;11570;-71
2021/12/15 09:16:55;;;;;;;;;14.00;14.00;;;;;4.30;87.88;101673.34;5033652;28;11618;-70
2021/12/15 09:19:50;;;;;;;;;19.00;18.00;;;;;4.38;87.88;101675.59;5046234;28;11524;-70
2021/12/15 09:22:32;;;;;;;;;19.75;19.75;;;;;4.15;88.15;101669.44;5046374;28;11573;-70
2021/12/15 09:25:02;;;;;;;;;24.00;22.00;;;;;4.03;88.87;101676.19;5035453;28;11548;-70
2021/12/15 09:27:58;;;;;;;;;23.25;23.25;;;;;4.16;88.82;101671.06;5053387;28;12324;-70
2021/12/15 09:30:54;;;;;;;;;22.50;22.50;;;;;4.35;88.60;101667.91;5051983;28;12345;-70
2021/12/15 09:33:52;;;;;;;;;18.25;18.25;;;;;4.24;88.38;101666.19;5051771;28;12254;-69
2021/12/15 09:36:50;;;;;;;;;21.75;16.75;;;;;4.25;87.92;101670.59;5038496;28;11564;-71
2021/12/15 09:39:46;;;;;;;;;20.00;19.25;;;;;4.47;87.36;101668.53;5052655;28;11513;-70
2021/12/15 09:42:43;;;;;;;;;16.00;16.00;;;;;4.50;87.04;101676.19;5051721;28;11526;-70
2021/12/15 09:46:04;;;;;;;;;17.00;17.00;;;;;4.47;86.68;101658.38;5051683;28;11507;-70
2021/12/15 10:07:02;;;;;;;;;14.50;14.50;;;;;4.64;86.57;101622.56;5056767;28;12354;-71
2021/12/15 10:18:11;;;;;;;;;14.00;12.50;;;;;4.73;85.98;101639.31;5056191;28;11656;-70
2021/12/15 10:20:40;;;;;;;;;18.50;17.25;;;;;4.65;86.23;101628.88;5056482;28;11537;-71
2021/12/15 10:23:22;;;;;;;;;18.75;18.75;;;;;4.81;85.85;101630.56;5056622;28;11537;-71
2021/12/15 10:25:54;;;;;;;;;17.25;17.25;;;;;4.94;85.30;101629.22;5056503;28;11551;-70
2021/12/15 10:28:27;;;;;;;;;21.25;20.75;;;;;4.97;85.38;101637.72;5038505;28;11626;-71
2021/12/15 10:31:02;;;;;;;;;20.75;20.00;;;;;4.87;85.42;101640.44;5056554;28;11680;-70
2021/12/15 10:33:35;;;;;;;;;15.50;15.50;;;;;4.84;85.14;101640.19;5039058;28;11521;-70
2021/12/15 10:36:12;;;;;;;;;22.75;20.75;;;;;4.98;84.87;101631.19;5056452;28;12256;-70
2021/12/15 10:38:45;;;;;;;;;17.50;17.50;;;;;5.11;84.63;101637.22;5038660;28;11564;-70
2021/12/15 10:41:27;;;;;;;;;16.25;16.25;;;;;4.86;85.61;101637.97;5056271;28;11715;-70
2021/12/15 10:44:03;;;;;;;;;18.75;17.25;;;;;4.84;85.28;101630.03;5056158;28;11632;-70
2021/12/15 10:46:44;;;;;;;;;19.75;19.75;;;;;5.10;84.98;101630.91;5056130;28;11520;-69
2021/12/15 10:49:18;;;;;;;;;22.75;19.75;;;;;5.18;84.80;101635.84;5056096;28;11619;-71
2021/12/15 10:51:59;;;;;;;;;20.75;19.50;;;;;5.06;85.14;101650.91;5055965;28;11523;-71
2021/12/15 10:54:44;;;;;;;;;20.00;20.00;;;;;5.17;84.35;101644.38;5056163;28;11533;-71
2021/12/15 10:57:17;;;;;;;;;19.75;17.00;;;;;4.83;85.73;101644.00;5038016;28;11564;-71
2021/12/15 10:59:51;;;;;;;;;23.75;23.75;;;;;4.91;85.63;101641.56;5056004;28;11504;-70
2021/12/15 11:02:37;;;;;;;;;14.75;14.75;;;;;4.77;86.12;101645.09;5041590;28;11603;-71
2021/12/15 11:05:06;;;;;;;;;16.25;16.25;;;;;4.90;85.84;101644.56;5055598;28;11532;-70
2021/12/15 11:07:52;;;;;;;;;16.25;16.00;;;;;4.87;85.55;101642.38;5055526;28;12342;-70
2021/12/15 11:10:39;;;;;;;;;17.25;16.00;;;;;4.81;85.84;101637.97;5040748;28;11575;-70
2021/12/15 11:13:13;;;;;;;;;15.00;15.00;;;;;4.94;85.67;101637.47;5055420;28;11560;-70
2021/12/15 11:15:46;;;;;;;;;16.00;16.00;;;;;4.98;85.68;101630.31;5052735;28;11618;-70
2021/12/15 11:18:17;;;;;;;;;17.25;13.75;;;;;4.87;85.68;101631.41;5046305;28;11538;-71
2021/12/15 11:20:54;;;;;;;;;17.00;17.00;;;;;5.05;85.78;101630.88;5059791;28;11601;-71
2021/12/15 11:23:55;;;;;;;;;16.50;16.50;;;;;5.18;84.82;101643.25;5041149;28;11613;-72
2021/12/15 11:26:22;;;;;;;;;19.25;19.25;;;;;5.20;84.92;101646.56;5055449;28;11545;-71
2021/12/15 11:29:41;;;;;;;;;19.75;19.75;;;;;5.29;84.79;101643.03;5059335;28;11557;-71
2021/12/15 11:32:49;;;;;;;;;20.00;19.50;;;;;5.02;85.29;101653.38;5053383;28;11728;-71
2021/12/15 11:36:03;;;;;;;;;23.25;23.25;;;;;5.38;84.33;101656.19;5054702;28;11539;-71
2021/12/15 11:39:15;;;;;;;;;21.25;20.25;;;;;5.45;84.26;101646.59;5073822;28;11588;-71
2021/12/15 11:41:46;;;;;;;;;20.75;19.75;;;;;5.43;83.49;101650.69;5063401;28;11553;-72
2021/12/15 11:44:42;;;;;;;;;20.50;20.50;;;;;5.66;83.51;101661.13;5065334;28;11516;-71
2021/12/15 11:47:23;;;;;;;;;22.50;22.50;;;;;5.49;83.63;101655.09;5054726;28;11467;-69
2021/12/15 11:49:51;;;;;;;;;18.25;18.25;;;;;5.12;84.35;101653.41;5044461;28;11611;-71
2021/12/15 11:52:19;;;;;;;;;19.50;19.00;;;;;5.36;83.73;101648.22;5066207;28;11537;-71
2021/12/15 11:55:30;;;;;;;;;27.00;27.00;;;;;5.37;83.96;101649.91;5075583;28;12288;-72
2021/12/15 11:57:58;;;;;;;;;26.75;26.75;;;;;5.30;84.23;101652.91;5039855;28;11522;-69
2021/12/15 12:00:29;;;;;;;;;14.25;13.50;;;;;5.31;83.79;101648.25;5059300;28;11566;-69
2021/12/15 12:02:58;;;;;;;;;23.50;23.00;;;;;5.55;83.70;101643.03;5053182;28;11538;-69
2021/12/15 12:05:37;;;;;;;;;25.75;25.75;;;;;5.55;83.60;101646.59;5036941;28;11477;-70
2021/12/15 12:08:32;;;;;;;;;23.75;23.75;;;;;5.69;82.93;101643.31;5040143;28;11516;-70
2021/12/15 12:11:14;;;;;;;;;30.75;30.50;;;;;5.42;83.94;101643.56;5054371;28;11482;-69
2021/12/15 12:13:49;;;;;;;;;30.75;28.25;;;;;5.42;83.73;101643.56;5054323;28;11846;-69
2021/12/15 12:16:30;;;;;;;;;26.75;25.50;;;;;5.40;83.74;101649.34;5064750;28;12291;-69
2021/12/15 12:18:59;;;;;;;;;19.50;19.50;;;;;5.05;84.80;101636.38;5073993;28;11515;-70
2021/12/15 12:21:55;;;;;;;;;20.75;20.75;;;;;5.23;84.57;101640.53;5056872;28;11541;-70
2021/12/15 12:24:27;;;;;;;;;24.50;23.75;;;;;5.21;85.32;101650.94;5035920;28;11557;-71
2021/12/15 12:26:55;;;;;;;;;26.75;25.75;;;;;5.30;84.71;101643.84;5036019;28;11641;-70
2021/12/15 12:29:58;;;;;;;;;25.50;25.25;;;;;5.55;84.01;101645.78;5052818;28;11549;-70
2021/12/15 12:32:34;;;;;;;;;8.25;8.25;;;;;5.44;83.80;101644.94;5039113;28;11643;-71
2021/12/15 12:35:06;;;;;;;;;31.25;23.25;;;;;5.34;83.92;101653.16;5036273;28;11492;-70
2021/12/15 12:38:12;;;;;;;;;23.00;22.75;;;;;5.33;84.84;101656.19;5048842;28;12372;-71
2021/12/15 12:41:06;;;;;;;;;20.00;19.50;;;;;5.34;84.40;101660.56;5053616;28;12371;-70
2021/12/15 12:44:05;;;;;;;;;30.25;29.25;;;;;5.43;84.27;101665.25;5034083;28;11555;-71
2021/12/15 12:47:08;;;;;;;;;33.50;33.50;;;;;5.40;84.24;101664.97;5019191;28;12336;-70
2021/12/15 12:59:49;;;;;;;;;36.75;34.75;;;;;5.58;84.14;101678.97;5072284;28;11518;-69
2021/12/15 13:02:51;;;;;;;;;33.25;31.75;;;;;5.64;83.62;101688.03;5056679;28;11540;-69
2021/12/15 13:05:59;;;;;;;;;29.00;28.00;;;;;5.61;84.26;101682.28;5052511;28;11627;-69
2021/12/15 13:09:04;;;;;;;;;25.50;25.50;;;;;5.52;84.15;101679.25;5055365;28;11593;-69
2021/12/15 13:11:50;;;;;;;;;35.00;28.00;;;;;5.48;84.98;101680.91;5058463;28;11481;-70
2021/12/15 13:14:38;;;;;;;;;29.25;29.25;;;;;5.47;84.42;101688.31;5052010;28;11520;-70
2021/12/15 13:17:37;;;;;;;;;36.75;35.50;;;;;5.43;85.51;101684.44;5052107;28;11537;-70
2021/12/15 13:20:23;;;;;;;;;32.00;32.00;;;;;5.35;85.16;101682.25;5056342;28;12297;-70
2021/12/15 13:23:57;;;;;;;;;24.50;22.50;;;;;5.39;85.72;101683.34;5048996;28;11556;-70
2021/12/15 13:30:25;;;;;;;;;42.50;40.75;;;;;5.48;85.41;101684.47;5050756;28;11551;-69
2021/12/15 13:33:29;;;;;;;;;46.25;43.50;;;;;5.48;84.96;101684.47;5054513;28;11628;-68
2021/12/15 13:36:43;;;;;;;;;32.00;29.75;;;;;5.50;85.10;101684.19;5051797;28;11582;-69
2021/12/15 13:39:48;;;;;;;;;31.00;31.00;;;;;5.44;85.37;101693.50;5053942;28;11538;-69
2021/12/15 13:42:52;;;;;;;;;10.75;10.75;;;;;5.60;84.49;101684.22;5067848;28;11576;-69
2021/12/15 13:45:32;;;;;;;;;23.25;20.25;;;;;5.60;84.54;101686.97;5072422;28;11501;-69
2021/12/15 13:48:55;;;;;;;;;26.50;22.25;;;;;5.46;84.49;101702.31;5065180;28;11512;-70
2021/12/15 13:51:53;;;;;;;;;24.75;24.75;;;;;5.56;84.81;101694.06;5048687;28;11541;-70
2021/12/15 13:54:24;;;;;;;;;14.75;14.50;;;;;5.29;85.16;101694.28;5052756;28;11549;-70
2021/12/15 13:57:12;;;;;;;;;20.75;18.75;;;;;5.42;84.92;101701.19;5051834;28;11567;-69
2021/12/15 14:00:22;;;;;;;;;17.25;17.25;;;;;5.50;84.22;101706.97;5052590;28;11564;-69
2021/12/15 14:03:17;;;;;;;;;16.50;16.50;;;;;5.52;84.74;101709.41;5052423;28;11556;-69
2021/12/15 14:06:16;;;;;;;;;20.50;20.25;;;;;5.59;84.18;101715.47;5032609;28;11588;-69
2021/12/15 14:09:06;;;;;;;;;14.25;14.25;;;;;5.54;84.15;101730.03;5042359;28;11492;-70
2021/12/15 14:11:48;;;;;;;;;22.75;22.75;;;;;5.55;84.04;101728.09;5036988;28;11527;-70
2021/12/15 14:14:45;;;;;;;;;20.75;20.75;;;;;5.43;84.93;101722.84;5033957;28;11558;-69
2021/12/15 14:17:21;;;;;;;;;20.25;19.00;;;;;5.12;85.87;101730.19;5052362;28;11626;-70
2021/12/15 14:20:17;;;;;;;;;24.50;24.50;;;;;5.20;85.62;101721.44;5062787;28;11557;-68
2021/12/15 14:23:16;;;;;;;;;26.50;24.25;;;;;5.33;85.68;101735.75;5057329;28;11652;-68
2021/12/15 14:26:15;;;;;;;;;26.25;26.25;;;;;5.17;86.34;101732.13;5051835;28;11600;-69
2021/12/15 14:29:19;;;;;;;;;23.50;23.25;;;;;5.09;86.44;101746.34;5059873;28;11555;-69